Архив погоды в Дальнереченске

Метеограмма Дальнереченск
Вторник, 19 Июня
Время местн. Темп Ветер Видим Явления Облачность нижн/средн/верх Атм. давл. Влжн Точка росы ВНГО R Сост. почвы Tg s
Напр Скр Прв ур.ст ур.м изм
07:00 +15.6° Ю,Ю-З 6 10 50 км - облачно 742 751 -0.1 73% +10.7° - 0 Сухая (без трещин) - -
04:00 +17.4° Ю-З 3 11 10 км - облачно 742 751 -0.6 75% +13° более 2.5 км - - - -
01:00 +18.2° Ю,Ю-З 5 - 10 км - облачно 743 751 -0.5 75% +13.6° более 2.5 км - - - -
Понедельник, 18 Июня
Время местн. Темп Ветер Видим Явления Облачность нижн/средн/верх Атм. давл. Влжн Точка росы ВНГО R Сост. почвы Tg s
Напр Скр Прв ур.ст ур.м изм
22:00 +19.6° Ю-З 2 - 10 км небо без изменений {ливневые осадки} облачно 743 752 +0.1 78% +15.7° более 2.5 км - - - -
19:00 +22.6° Ю-З 3 - более 50 км слабый ливневый дождь облачно 743 752 -1 72% +17.4° 1 км 0 - - -
16:00 +26.7° Ю,Ю-З 4 - более 50 км - переменная облачность 744 752 -2.2 49% +15.1° 1 км - - - -
13:00 +22° Ю 3 - 50 км - переменная облачность 746 755 -0.8 67% +15.5° 1 км - - - -
10:00 +18.2° Ю,Ю-З 3 - 50 км - облачно 747 756 -0.1 75% +13.6° 1 км - - - -
07:00 +15.6° Ю 3 - 20 км - облачно 747 756 +0.1 86% +13.2° 1 км 0 Сухая (без трещин) - -
04:00 +15.1° Ю,Ю-З 4 - 10 км - облачно 747 756 +0.2 88% +13.2° более 2.5 км - - - -
01:00 +13.8° штиль 0 - 10 км - ясно 747 756 +0.2 92% +12.6° более 2.5 км - - - -
Воскресенье, 17 Июня
Время местн. Темп Ветер Видим Явления Облачность нижн/средн/верх Атм. давл. Влжн Точка росы ВНГО R Сост. почвы Tg s
Напр Скр Прв ур.ст ур.м изм
22:00 +18° штиль 0 - 10 км - облачно 746 755 +0.9 81% +14.6° - - - - -
19:00 +20.5° Ю 3 - 20 км - облачно с прояснениями 746 754 -0.2 69% +14.7° 1 км 0 - - -
16:00 +21° Ю,Ю-З 4 11 20 км - облачно с прояснениями 746 754 -0.6 65% +14.2° 1 км - - - -
13:00 +16.9° Ю,Ю-З 6 11 20 км - облачно 746 755 -0.3 74% +12.2° 1 км - - - -
10:00 +13.5° Ю,Ю-З 5 - 20 км небо без изменений {дождь} облачно 747 756 +0.2 83% +10.6° 1 км - - - -
07:00 +12° Ю,Ю-З 4 - 20 км дождь облачно 746 756 -0.2 84% +9.4° 600 м 0.6 Влажная (без луж) - -
04:00 +12.5° Ю,Ю-З 5 13 10 км слабый непрерывный дождь облачно 747 756 -0.7 78% +8.7° 1 км - - - -
01:00 +13° Ю,Ю-З 4 - 10 км - облачно 747 756 -0.4 70% +7.7° 1 км - - - -
Суббота, 16 Июня
Время местн. Темп Ветер Видим Явления Облачность нижн/средн/верх Атм. давл. Влжн Точка росы ВНГО R Сост. почвы Tg s
Напр Скр Прв ур.ст ур.м изм
22:00 +14.1° Ю-З 5 - 10 км - облачно 748 757 0 77% +10.2° 1 км - - - -
19:00 +19° Ю-З 4 - более 50 км - облачно с прояснениями 748 757 -0.5 65% +12.2° 1 км 0 - - -
16:00 +23° Ю 3 - более 50 км - переменная облачность 748 757 -2.3 41% +9.2° 1 км - - - -
13:00 +19.4° Ю 4 - 50 км - облачно с прояснениями 751 759 -1.3 51% +9° - - - - -
10:00 +15.5° Ю 4 - более 50 км - преимущественно облачно 752 761 -0.8 57% +7.1° более 2.5 км - - - -
07:00 +12.5° Ю,Ю-З 2 - 20 км - преимущественно облачно 753 762 -0.2 63% +5.6° более 2.5 км 0 Сухая (без трещин) +10° -
04:00 +10.9° Ю,Ю-З 1 - 20 км - облачно 753 762 +0.1 64% +4.4° - - - - -